createdAt,value
2018-12-23T00:00:56.851Z,1.23
2018-12-23T00:03:24.348Z,2.50
2018-12-23T00:05:51.847Z,2.10
2018-12-23T00:08:19.408Z,1.33
2018-12-23T00:10:46.907Z,1.80
2018-12-23T00:13:14.555Z,1.73
2018-12-23T00:15:42.054Z,1.43
2018-12-23T00:18:09.548Z,1.40
2018-12-23T00:20:37.100Z,1.93
2018-12-23T00:23:04.603Z,2.50
2018-12-23T00:25:32.158Z,1.47
2018-12-23T00:27:59.663Z,1.53
2018-12-23T00:30:27.178Z,0.83
2018-12-23T00:32:54.824Z,2.13
2018-12-23T00:35:22.319Z,1.50
2018-12-23T00:37:50.047Z,1.70
2018-12-23T00:40:17.543Z,1.43
2018-12-23T00:42:45.136Z,1.97
2018-12-23T00:45:12.663Z,2.10
2018-12-23T00:47:40.196Z,1.60
2018-12-23T00:50:07.732Z,2.33
2018-12-23T00:52:35.239Z,1.23
2018-12-23T00:55:02.739Z,1.43
2018-12-23T00:57:30.265Z,1.40
2018-12-23T00:59:57.768Z,1.87
2018-12-23T01:02:25.443Z,1.57
2018-12-23T01:04:52.964Z,1.57
2018-12-23T01:07:20.467Z,1.37
2018-12-23T01:09:47.989Z,1.70
2018-12-23T01:12:15.497Z,1.87
2018-12-23T01:14:43.191Z,2.10
2018-12-23T01:17:10.691Z,1.50
2018-12-23T01:19:38.188Z,3.10
2018-12-23T01:22:05.715Z,1.87
2018-12-23T01:24:33.215Z,1.13
2018-12-23T01:27:00.767Z,1.80
2018-12-23T01:29:28.268Z,2.40
2018-12-23T01:31:55.994Z,1.83
2018-12-23T01:34:23.523Z,1.20
2018-12-23T01:36:51.023Z,1.87
2018-12-23T01:39:18.716Z,1.40
2018-12-23T01:41:46.220Z,1.47
2018-12-23T01:44:13.721Z,1.80
2018-12-23T01:46:41.256Z,1.53
2018-12-23T01:49:08.807Z,2.07
2018-12-23T01:51:36.516Z,2.03
2018-12-23T01:54:04.145Z,2.17
2018-12-23T01:56:31.645Z,2.37
2018-12-23T01:58:59.172Z,1.50
2018-12-23T02:01:26.691Z,2.10
2018-12-23T02:03:54.360Z,1.40
2018-12-23T02:06:21.864Z,1.90
2018-12-23T02:08:49.371Z,1.03
2018-12-23T02:11:16.899Z,1.77
2018-12-23T02:13:44.396Z,0.80
2018-12-23T02:16:12.212Z,1.93
2018-12-23T02:18:39.707Z,1.47
2018-12-23T02:21:07.212Z,1.50
2018-12-23T02:23:34.964Z,1.90
2018-12-23T02:26:02.459Z,1.50
2018-12-23T02:28:30.591Z,1.93
2018-12-23T02:30:58.099Z,1.57
2018-12-23T02:33:25.617Z,1.80
2018-12-23T02:35:55.785Z,1.10
2018-12-23T02:38:22.676Z,2.20
2018-12-23T02:40:50.243Z,1.73
2018-12-23T02:43:17.769Z,1.40
2018-12-23T02:45:45.278Z,1.77
2018-12-23T02:48:12.808Z,1.10
2018-12-23T02:50:40.323Z,1.07
2018-12-23T02:53:07.853Z,1.40
2018-12-23T02:55:35.376Z,1.33
2018-12-23T02:58:02.871Z,1.17
2018-12-23T03:00:30.415Z,2.20
2018-12-23T03:02:57.907Z,1.20
2018-12-23T03:05:25.453Z,1.30
2018-12-23T03:07:52.964Z,1.43
2018-12-23T03:10:20.502Z,1.47
2018-12-23T03:12:48.012Z,1.70
2018-12-23T03:15:15.511Z,0.87
2018-12-23T03:17:43.065Z,1.37
2018-12-23T03:20:10.767Z,1.73
2018-12-23T03:22:38.584Z,1.60
2018-12-23T03:25:06.192Z,2.30
2018-12-23T03:27:33.922Z,1.20
2018-12-23T03:30:01.452Z,2.23
2018-12-23T03:32:28.952Z,1.90
2018-12-23T03:34:56.675Z,1.80
2018-12-23T03:37:24.179Z,2.97
2018-12-23T03:39:51.683Z,1.50
2018-12-23T03:42:19.217Z,1.40
2018-12-23T03:44:46.743Z,1.20
2018-12-23T03:47:14.304Z,1.83
2018-12-23T03:49:41.824Z,1.07
2018-12-23T03:52:09.320Z,1.13
2018-12-23T03:54:36.843Z,1.60
2018-12-23T03:57:04.343Z,1.03
2018-12-23T03:59:32.149Z,1.27
2018-12-23T04:01:59.649Z,1.70
2018-12-23T04:04:27.145Z,1.30
2018-12-23T04:06:54.677Z,1.27
2018-12-23T04:09:22.189Z,1.20
2018-12-23T04:11:49.871Z,1.30
2018-12-23T04:14:17.367Z,1.00
2018-12-23T04:16:44.868Z,1.57
2018-12-23T04:19:12.423Z,1.77
2018-12-23T04:21:39.932Z,1.03
2018-12-23T04:24:07.467Z,1.17
2018-12-23T04:26:34.967Z,1.30
2018-12-23T04:29:02.495Z,1.67
2018-12-23T04:31:29.999Z,1.13
2018-12-23T04:33:57.503Z,1.20
2018-12-23T04:36:33.818Z,1.37
2018-12-23T04:38:54.572Z,1.57
2018-12-23T04:41:22.107Z,1.50
2018-12-23T04:43:49.615Z,0.90
2018-12-23T04:46:17.119Z,1.37
2018-12-23T04:48:44.654Z,1.87
2018-12-23T04:51:12.158Z,1.20
2018-12-23T04:53:39.752Z,1.10
2018-12-23T04:56:07.279Z,1.10
2018-12-23T04:58:34.788Z,1.87
2018-12-23T05:01:02.340Z,0.83
2018-12-23T05:03:29.840Z,1.60
2018-12-23T05:05:57.511Z,1.77
2018-12-23T05:08:25.008Z,1.73
2018-12-23T05:10:52.515Z,1.40
2018-12-23T05:13:20.043Z,1.60
2018-12-23T05:15:47.548Z,0.90
2018-12-23T05:18:15.203Z,0.90
2018-12-23T05:20:42.699Z,1.13
2018-12-23T05:23:10.201Z,1.83
2018-12-23T05:25:37.743Z,1.07
2018-12-23T05:28:05.272Z,0.97
2018-12-23T05:30:32.841Z,1.07
2018-12-23T05:33:00.356Z,1.07
2018-12-23T05:35:28.061Z,1.57
2018-12-23T05:37:55.608Z,1.27
2018-12-23T05:40:23.152Z,1.27
2018-12-23T05:42:50.696Z,1.10
2018-12-23T05:45:18.207Z,2.50
2018-12-23T05:47:45.717Z,1.33
2018-12-23T05:50:13.243Z,0.80
2018-12-23T05:52:40.739Z,1.27
2018-12-23T05:55:08.604Z,1.57
2018-12-23T05:57:36.103Z,1.10
2018-12-23T06:00:04.122Z,1.10
2018-12-23T06:02:31.651Z,1.10
2018-12-23T06:04:59.172Z,1.60
2018-12-23T06:10:00.455Z,1.37
2018-12-23T06:12:27.999Z,3.07
2018-12-23T06:14:55.499Z,1.17
2018-12-23T06:17:22.991Z,1.27
2018-12-23T06:19:50.539Z,1.53
2018-12-23T06:22:18.043Z,2.43
2018-12-23T06:24:45.572Z,1.23
2018-12-23T06:27:13.127Z,3.70
2018-12-23T06:29:40.655Z,1.70
2018-12-23T06:32:08.164Z,2.20
2018-12-23T06:34:35.792Z,1.30
2018-12-23T06:37:09.897Z,1.80
2018-12-23T06:39:32.827Z,1.67
2018-12-23T06:42:00.350Z,2.30
2018-12-23T06:44:27.845Z,1.70
2018-12-23T06:46:55.413Z,2.47
2018-12-23T06:49:22.975Z,1.10
2018-12-23T06:51:50.559Z,1.97
2018-12-23T06:54:18.099Z,1.23
2018-12-23T06:56:45.599Z,1.80
2018-12-23T06:59:13.165Z,2.37
2018-12-23T07:01:40.683Z,2.40
2018-12-23T07:04:08.183Z,2.50
2018-12-23T07:06:35.712Z,1.90
2018-12-23T07:09:04.522Z,1.60
2018-12-23T07:11:32.375Z,1.70
2018-12-23T07:13:59.879Z,1.80
2018-12-23T07:16:27.375Z,2.00
2018-12-23T07:18:54.899Z,2.17
2018-12-23T07:21:22.400Z,3.27
2018-12-23T07:23:50.256Z,3.03
2018-12-23T07:26:17.756Z,2.40
2018-12-23T07:28:45.257Z,2.57
2018-12-23T07:31:12.779Z,1.87
2018-12-23T07:33:40.277Z,2.37
2018-12-23T07:36:07.959Z,2.90
2018-12-23T07:38:35.455Z,2.10
2018-12-23T07:41:02.973Z,3.07
2018-12-23T07:43:30.580Z,2.50
2018-12-23T07:45:58.083Z,2.17
2018-12-23T07:48:25.751Z,2.50
2018-12-23T07:50:53.877Z,1.80
2018-12-23T07:53:21.519Z,1.40
2018-12-23T07:55:49.047Z,2.60
2018-12-23T07:58:16.575Z,3.23
2018-12-23T08:00:44.371Z,1.93
2018-12-23T08:03:11.889Z,3.37
2018-12-23T08:05:39.388Z,3.30
2018-12-23T08:08:06.911Z,2.13
2018-12-23T08:10:34.435Z,3.63
2018-12-23T08:13:01.964Z,1.80
2018-12-23T08:15:29.458Z,3.40
2018-12-23T08:17:56.957Z,2.27
2018-12-23T08:20:24.504Z,3.90
2018-12-23T08:22:52.019Z,2.60
2018-12-23T08:25:19.656Z,3.10
2018-12-23T08:27:47.167Z,3.10
2018-12-23T08:30:14.683Z,3.23
2018-12-23T08:32:42.207Z,2.60
2018-12-23T08:35:09.703Z,3.30
2018-12-23T08:37:44.404Z,2.50
2018-12-23T08:40:06.827Z,3.37
2018-12-23T08:42:34.343Z,3.43
2018-12-23T08:45:01.868Z,2.83
2018-12-23T08:47:29.363Z,2.83
2018-12-23T08:49:56.923Z,2.50
2018-12-23T08:52:24.432Z,4.67
2018-12-23T08:54:51.933Z,3.90
2018-12-23T08:57:19.459Z,3.33
2018-12-23T08:59:46.959Z,3.70
2018-12-23T09:02:14.796Z,4.00
2018-12-23T09:04:42.315Z,2.77
2018-12-23T09:07:09.811Z,2.60
2018-12-23T09:09:37.346Z,3.53
2018-12-23T09:12:04.847Z,2.97
2018-12-23T09:14:32.392Z,2.77
2018-12-23T09:16:59.891Z,4.27
2018-12-23T09:19:27.392Z,4.20
2018-12-23T09:21:54.983Z,3.57
2018-12-23T09:24:22.559Z,4.40
2018-12-23T09:26:50.127Z,3.80
2018-12-23T09:29:17.627Z,3.60
2018-12-23T09:31:45.143Z,4.10
2018-12-23T09:34:12.676Z,3.97
2018-12-23T09:36:40.184Z,2.77
2018-12-23T09:39:07.984Z,4.53
2018-12-23T09:41:35.487Z,3.10
2018-12-23T09:44:03.011Z,3.90
2018-12-23T09:46:30.559Z,2.40
2018-12-23T09:48:58.056Z,3.37
2018-12-23T09:51:25.619Z,3.20
2018-12-23T09:53:53.117Z,5.10
2018-12-23T09:56:20.620Z,2.93
2018-12-23T09:58:48.155Z,3.23
2018-12-23T10:01:15.679Z,4.80
2018-12-23T10:03:43.216Z,5.00
2018-12-23T10:06:10.715Z,3.90
2018-12-23T10:08:38.248Z,3.57
2018-12-23T10:11:05.954Z,3.37
2018-12-23T10:13:33.455Z,3.43
2018-12-23T10:16:00.991Z,5.60
2018-12-23T10:18:28.511Z,4.13
2018-12-23T10:20:56.275Z,3.80
2018-12-23T10:23:23.784Z,4.40
2018-12-23T10:25:51.282Z,3.80
2018-12-23T10:28:18.815Z,3.97
2018-12-23T10:30:46.319Z,4.10
2018-12-23T10:33:13.862Z,5.57
2018-12-23T10:35:41.368Z,4.27
2018-12-23T10:38:08.903Z,4.93
2018-12-23T10:40:36.407Z,4.40
2018-12-23T10:43:03.907Z,4.60
2018-12-23T10:45:31.436Z,4.00
2018-12-23T10:47:58.935Z,5.30
2018-12-23T10:50:26.475Z,4.80
2018-12-23T10:52:53.979Z,3.67
2018-12-23T10:55:21.611Z,5.77
2018-12-23T10:57:49.173Z,5.40
2018-12-23T11:00:16.678Z,3.90
2018-12-23T11:02:44.224Z,4.90
2018-12-23T11:05:11.768Z,5.20
2018-12-23T11:07:39.417Z,4.77
2018-12-23T11:10:06.924Z,5.47
2018-12-23T11:12:34.428Z,5.70
2018-12-23T11:15:01.961Z,5.93
2018-12-23T11:17:29.463Z,6.83
2018-12-23T11:19:57.207Z,5.07
2018-12-23T11:22:24.736Z,6.33
2018-12-23T11:24:52.265Z,6.30
2018-12-23T11:27:19.807Z,7.50
2018-12-23T11:29:47.311Z,7.07
2018-12-23T11:32:14.863Z,6.33
2018-12-23T11:34:42.368Z,6.70
2018-12-23T11:37:09.914Z,7.00
2018-12-23T11:39:37.447Z,7.57
2018-12-23T11:42:04.959Z,6.50
2018-12-23T11:44:32.509Z,6.60
2018-12-23T11:47:00.042Z,6.43
2018-12-23T11:49:27.588Z,5.97
2018-12-23T11:51:55.092Z,6.80
2018-12-23T11:54:22.652Z,6.20
2018-12-23T11:56:50.159Z,4.43
2018-12-23T11:59:17.663Z,5.67
2018-12-23T12:01:45.211Z,5.53
2018-12-23T12:04:12.709Z,5.47
2018-12-23T12:06:40.253Z,5.00
2018-12-23T12:09:07.858Z,4.70
2018-12-23T12:11:35.495Z,5.80
2018-12-23T12:14:03.119Z,4.40
2018-12-23T12:16:30.778Z,4.83
2018-12-23T12:18:58.299Z,4.17
2018-12-23T12:21:25.806Z,3.90
2018-12-23T12:23:53.354Z,5.40
2018-12-23T12:26:20.863Z,4.20
2018-12-23T12:28:48.568Z,2.70
2018-12-23T12:31:16.076Z,2.60
2018-12-23T12:33:43.592Z,3.40
2018-12-23T12:36:11.128Z,3.80
2018-12-23T12:38:38.635Z,4.30
2018-12-23T12:41:06.590Z,4.97
2018-12-23T12:43:34.091Z,3.80
2018-12-23T12:46:01.595Z,4.27
2018-12-23T12:48:29.127Z,4.50
2018-12-23T12:50:56.631Z,4.60
2018-12-23T12:53:24.195Z,3.27
2018-12-23T12:55:51.695Z,1.70
2018-12-23T12:58:19.202Z,2.93
2018-12-23T13:00:46.734Z,2.90
2018-12-23T13:03:14.236Z,3.10
2018-12-23T13:05:41.979Z,2.47
2018-12-23T13:08:09.532Z,2.33
2018-12-23T13:10:37.116Z,1.63
2018-12-23T13:13:04.644Z,1.77
2018-12-23T13:15:32.159Z,1.60
2018-12-23T13:21:32.952Z,1.47
2018-12-23T13:24:01.570Z,1.10
2018-12-23T13:26:49.468Z,1.57
2018-12-23T13:32:10.942Z,1.27
2018-12-23T13:34:58.880Z,1.50
2018-12-23T13:37:27.463Z,2.37
2018-12-23T13:40:15.413Z,2.23
2018-12-23T13:43:22.592Z,1.70
2018-12-23T13:46:31.164Z,1.43
2018-12-23T13:49:39.660Z,2.50
2018-12-23T13:52:48.473Z,1.60
2018-12-23T13:55:55.650Z,2.00
2018-12-23T13:59:04.202Z,4.23
2018-12-23T14:02:11.376Z,3.00
2018-12-23T14:05:19.913Z,3.27
2018-12-23T14:08:28.488Z,4.30
2018-12-23T14:11:35.769Z,2.63
2018-12-23T14:14:23.684Z,3.80
2018-12-23T14:17:11.572Z,4.47
2018-12-23T14:19:59.347Z,4.73
2018-12-23T14:22:28.004Z,3.80
2018-12-23T14:24:56.618Z,6.10
2018-12-23T14:27:44.580Z,4.33
2018-12-23T14:30:32.364Z,3.10
2018-12-23T14:36:16.750Z,1.20
2018-12-23T14:39:04.784Z,1.60
2018-12-23T14:41:54.533Z,1.70
2018-12-23T14:44:42.364Z,3.17
2018-12-23T14:47:10.948Z,1.30
2018-12-23T14:49:39.545Z,4.03
2018-12-23T14:52:27.350Z,4.03
2018-12-23T14:55:15.072Z,2.43
2018-12-23T14:57:43.745Z,2.17
2018-12-23T15:00:12.397Z,1.60
2018-12-23T15:02:40.987Z,1.47
2018-12-23T15:05:09.664Z,3.60
2018-12-23T15:07:57.456Z,3.23
2018-12-23T15:10:26.082Z,3.80
2018-12-23T15:13:34.774Z,3.43
2018-12-23T15:15:52.803Z,1.10
2018-12-23T15:21:28.053Z,7.17
2018-12-23T15:24:15.957Z,7.50
2018-12-23T15:27:03.917Z,2.20
2018-12-23T15:29:51.837Z,3.53
2018-12-23T15:35:14.098Z,4.63
2018-12-23T15:37:42.860Z,5.40
2018-12-23T15:40:11.442Z,3.40
2018-12-23T15:42:40.036Z,7.00
2018-12-23T15:45:08.870Z,10.40
2018-12-23T15:47:37.481Z,4.50
2018-12-23T15:50:06.748Z,4.00
2018-12-23T15:52:35.352Z,4.77
2018-12-23T15:55:04.112Z,2.50
2018-12-23T15:57:32.763Z,3.30
2018-12-23T16:00:01.344Z,5.23
2018-12-23T16:02:30.113Z,6.83
2018-12-23T16:04:58.716Z,2.80
2018-12-23T16:07:27.337Z,4.90
2018-12-23T16:09:55.983Z,3.40
2018-12-23T16:12:24.613Z,4.40
2018-12-23T16:14:53.337Z,3.80
2018-12-23T16:17:21.918Z,3.37
2018-12-23T16:19:50.774Z,2.70
2018-12-23T16:22:19.421Z,3.93
2018-12-23T16:24:48.311Z,3.63
2018-12-23T16:27:16.963Z,4.00
2018-12-23T16:29:45.544Z,3.80
2018-12-23T16:32:14.171Z,3.57
2018-12-23T16:34:42.877Z,3.10
2018-12-23T16:37:11.504Z,3.03
2018-12-23T16:39:40.087Z,3.27
2018-12-23T16:42:08.698Z,2.73
2018-12-23T16:44:37.384Z,2.77
2018-12-23T16:47:06.031Z,3.27
2018-12-23T16:49:34.821Z,2.70
2018-12-23T16:52:03.424Z,4.37
2018-12-23T16:54:32.004Z,4.60
2018-12-23T16:57:00.624Z,4.00
2018-12-23T16:59:29.220Z,3.77
2018-12-23T17:01:57.924Z,4.73
2018-12-23T17:04:26.600Z,4.57
2018-12-23T17:06:55.325Z,4.87
2018-12-23T17:09:23.936Z,5.60
2018-12-23T17:11:52.596Z,4.97
2018-12-23T17:14:21.283Z,5.37
2018-12-23T17:16:49.885Z,4.57
2018-12-23T17:19:18.635Z,5.13
2018-12-23T17:21:47.259Z,5.57
2018-12-23T17:24:15.912Z,7.30
2018-12-23T17:26:44.705Z,9.17
2018-12-23T17:29:13.319Z,10.97
2018-12-23T17:31:41.909Z,6.30
2018-12-23T17:34:10.530Z,4.77
2018-12-23T17:36:39.183Z,4.30
2018-12-23T17:39:08.223Z,4.73
2018-12-23T17:41:36.882Z,4.80
2018-12-23T17:44:05.460Z,4.13
2018-12-23T17:46:34.140Z,4.73
2018-12-23T17:49:02.800Z,4.10
2018-12-23T17:51:31.424Z,4.77
2018-12-23T17:54:00.012Z,3.17
2018-12-23T17:56:28.660Z,3.37
2018-12-23T17:58:57.361Z,4.83
2018-12-23T18:01:25.943Z,3.83
2018-12-23T18:04:02.037Z,4.17
2018-12-23T18:06:25.191Z,4.83
2018-12-23T18:08:54.110Z,4.87
2018-12-23T18:11:22.880Z,3.97
2018-12-23T18:13:51.495Z,3.47
2018-12-23T18:16:20.252Z,2.97
2018-12-23T18:18:48.809Z,2.67
2018-12-23T18:21:17.605Z,3.80
2018-12-23T18:23:46.272Z,2.80
2018-12-23T18:26:14.928Z,3.67
2018-12-23T18:28:43.634Z,2.40
2018-12-23T18:31:12.303Z,2.77
2018-12-23T18:33:41.171Z,4.07
2018-12-23T18:36:09.826Z,3.93
2018-12-23T18:38:38.405Z,4.93
2018-12-23T18:41:07.158Z,6.27
2018-12-23T18:43:35.746Z,10.53
2018-12-23T18:46:04.608Z,18.20
2018-12-23T18:48:33.202Z,13.87
2018-12-23T18:51:01.932Z,12.27
2018-12-23T18:53:30.628Z,10.20
2018-12-23T18:55:59.240Z,9.37
2018-12-23T18:58:28.136Z,8.37
2018-12-23T19:00:56.801Z,8.70
2018-12-23T19:03:25.383Z,8.17
2018-12-23T19:05:54.123Z,6.63
2018-12-23T19:08:23.535Z,6.47
2018-12-23T19:11:15.176Z,7.77
2018-12-23T19:14:12.639Z,8.00
2018-12-23T19:16:50.348Z,6.67
2018-12-23T19:19:40.222Z,7.77
2018-12-23T19:22:14.937Z,6.90
2018-12-23T19:24:52.360Z,7.40
2018-12-23T19:27:24.145Z,6.50
2018-12-23T19:30:15.496Z,5.60
2018-12-23T19:32:49.891Z,6.33
2018-12-23T19:35:43.975Z,5.63
2018-12-23T19:38:18.703Z,5.63
2018-12-23T19:41:02.568Z,6.73
2018-12-23T19:43:50.918Z,6.80
2018-12-23T19:46:40.713Z,6.03
2018-12-23T19:49:51.173Z,3.20
2018-12-23T19:52:46.701Z,1.47
2018-12-23T19:55:39.517Z,1.00
2018-12-23T19:58:37.029Z,0.80
2018-12-23T20:01:11.469Z,0.63
2018-12-23T20:03:48.983Z,0.40
2018-12-23T20:06:41.419Z,0.40
2018-12-23T20:09:22.140Z,0.40
2018-12-23T20:11:59.669Z,0.33
2018-12-23T20:14:43.650Z,0.40
2018-12-23T20:17:24.480Z,0.93
2018-12-23T20:20:11.001Z,0.60
2018-12-23T20:22:45.508Z,0.63
2018-12-23T20:25:29.300Z,0.60
2018-12-23T20:28:25.309Z,0.40
2018-12-23T20:31:00.001Z,0.40
2018-12-23T20:33:43.641Z,0.40
2018-12-23T20:36:42.516Z,0.30
2018-12-23T20:39:37.341Z,0.40
2018-12-23T20:42:27.511Z,0.40
2018-12-23T20:45:18.371Z,0.30
2018-12-23T20:48:02.168Z,0.30
2018-12-23T20:51:02.906Z,0.30
2018-12-23T20:53:54.146Z,0.33
2018-12-23T20:56:56.495Z,0.30
2018-12-23T20:59:31.008Z,0.40
2018-12-23T21:02:11.610Z,0.37
2018-12-23T21:04:55.068Z,0.37
2018-12-23T21:07:32.746Z,0.27
2018-12-23T21:10:31.381Z,0.30
2018-12-23T21:13:05.754Z,0.30
2018-12-23T21:15:46.296Z,0.40
2018-12-23T21:18:39.511Z,0.30
2018-12-23T21:21:36.779Z,0.30
2018-12-23T21:24:25.456Z,0.30
2018-12-23T21:27:21.196Z,0.20
2018-12-23T21:30:01.891Z,0.30
2018-12-23T21:33:07.055Z,0.30
2018-12-23T21:36:05.777Z,0.53
2018-12-23T21:39:14.282Z,0.30
2018-12-23T21:42:22.889Z,0.30
2018-12-23T21:45:30.071Z,0.50
2018-12-23T21:48:37.286Z,1.90
2018-12-23T21:51:44.462Z,0.50
2018-12-23T21:54:53.004Z,0.30
2018-12-23T21:58:00.187Z,0.20
2018-12-23T22:01:07.438Z,0.30
2018-12-23T22:04:15.997Z,0.40
2018-12-23T22:07:23.304Z,0.30
2018-12-23T22:10:31.899Z,0.30
2018-12-23T22:13:39.108Z,1.30
2018-12-23T22:16:07.720Z,0.50
2018-12-23T22:21:29.234Z,0.30
2018-12-23T22:23:57.866Z,0.30
2018-12-23T22:26:26.472Z,0.30
2018-12-23T22:28:55.104Z,0.30
2018-12-23T22:31:42.878Z,0.30
2018-12-23T22:34:30.729Z,0.30
2018-12-23T22:36:59.298Z,0.30
2018-12-23T22:39:47.091Z,0.30
2018-12-23T22:42:15.889Z,0.20
2018-12-23T22:44:44.460Z,0.30
2018-12-23T22:47:13.081Z,0.30
2018-12-23T22:49:41.658Z,0.30
2018-12-23T22:52:29.532Z,1.07
2018-12-23T22:54:58.111Z,0.30
2018-12-23T22:57:45.917Z,0.30
2018-12-23T23:00:54.412Z,0.30
2018-12-23T23:03:23.028Z,0.30
2018-12-23T23:05:51.683Z,0.30
2018-12-23T23:11:13.635Z,0.20
2018-12-23T23:14:01.640Z,0.20
2018-12-23T23:16:49.434Z,0.30
2018-12-23T23:21:52.544Z,0.20
2018-12-23T23:24:40.285Z,0.30
2018-12-23T23:33:09.480Z,0.30
2018-12-23T23:35:38.097Z,0.30
2018-12-23T23:38:26.002Z,0.20
2018-12-23T23:43:48.358Z,0.20
2018-12-23T23:46:36.290Z,0.23
2018-12-23T23:49:24.196Z,0.30
2018-12-23T23:51:52.920Z,0.30
2018-12-23T23:54:40.625Z,0.30
2018-12-23T23:57:09.249Z,0.30
2018-12-23T23:59:57.023Z,0.30
